createdAt,value
2023-04-30T00:00:38.612Z,100007.11
2023-04-30T00:03:05.333Z,100009.85
2023-04-30T00:05:32.077Z,100009.09
2023-04-30T00:07:58.700Z,100004.65
2023-04-30T00:10:25.330Z,100003.23
2023-04-30T00:12:52.002Z,100004.83
2023-04-30T00:15:18.644Z,100000.65
2023-04-30T00:17:45.863Z,100002.27
2023-04-30T00:20:13.117Z,100001.55
2023-04-30T00:22:39.849Z,100001.48
2023-04-30T00:25:06.762Z,100006.41
2023-04-30T00:27:33.336Z,100005.69
2023-04-30T00:29:59.957Z,100004.10
2023-04-30T00:32:26.543Z,100005.08
2023-04-30T00:34:53.324Z,100005.25
2023-04-30T00:37:19.846Z,100005.32
2023-04-30T00:39:46.393Z,100004.91
2023-04-30T00:42:12.958Z,100004.33
2023-04-30T00:44:39.482Z,99997.63
2023-04-30T00:47:06.260Z,99994.98
2023-04-30T00:49:33.251Z,99997.65
2023-04-30T00:51:59.837Z,100008.66
2023-04-30T00:54:26.731Z,100012.44
2023-04-30T00:56:54.335Z,100017.77
2023-04-30T00:59:21.192Z,100018.72
2023-04-30T01:01:48.394Z,100022.20
2023-04-30T01:04:15.568Z,100019.90
2023-04-30T01:06:43.401Z,100016.52
2023-04-30T01:09:10.538Z,100016.48
2023-04-30T01:12:07.462Z,100015.77
2023-04-30T01:14:50.043Z,100016.08
2023-04-30T01:17:28.368Z,100013.89
2023-04-30T01:19:56.242Z,100016.69
2023-04-30T01:22:25.974Z,100018.15
2023-04-30T01:25:14.426Z,100020.08
2023-04-30T01:28:30.381Z,100023.03
2023-04-30T01:30:57.081Z,100024.21
2023-04-30T01:33:23.846Z,100019.42
2023-04-30T01:36:19.246Z,100017.61
2023-04-30T01:39:06.692Z,100017.70
2023-04-30T01:41:43.941Z,100016.74
2023-04-30T01:44:26.061Z,100018.17
2023-04-30T01:47:05.694Z,100019.52
2023-04-30T01:49:44.494Z,100017.30
2023-04-30T01:52:40.437Z,100022.27
2023-04-30T01:55:24.278Z,100020.11
2023-04-30T01:57:59.979Z,100023.88
2023-04-30T02:00:28.624Z,100026.33
2023-04-30T02:02:55.727Z,100024.56
2023-04-30T02:05:22.488Z,100027.70
2023-04-30T02:07:51.547Z,100029.39
2023-04-30T02:10:21.610Z,100027.34
2023-04-30T02:12:48.566Z,100028.09
2023-04-30T02:18:06.782Z,100031.42
2023-04-30T02:20:33.518Z,100033.08
2023-04-30T02:23:00.595Z,100032.81
2023-04-30T02:25:27.262Z,100034.79
2023-04-30T02:27:53.809Z,100034.27
2023-04-30T02:30:21.031Z,100038.32
2023-04-30T02:32:48.259Z,100036.91
2023-04-30T02:35:15.108Z,100036.21
2023-04-30T02:37:41.750Z,100039.40
2023-04-30T02:40:08.944Z,100038.28
2023-04-30T02:42:35.498Z,100042.09
2023-04-30T02:45:03.661Z,100041.14
2023-04-30T02:47:31.443Z,100040.68
2023-04-30T02:49:58.024Z,100042.88
2023-04-30T02:52:25.852Z,100043.63
2023-04-30T02:54:52.450Z,100043.07
2023-04-30T02:57:18.988Z,100045.48
2023-04-30T02:59:46.348Z,100043.90
2023-04-30T03:02:13.858Z,100047.77
2023-04-30T03:04:40.717Z,100048.40
2023-04-30T03:07:07.267Z,100050.33
2023-04-30T03:09:34.698Z,100053.18
2023-04-30T03:12:02.640Z,100054.04
2023-04-30T03:14:30.402Z,100060.34
2023-04-30T03:16:56.993Z,100064.10
2023-04-30T03:19:25.440Z,100070.45
2023-04-30T03:21:52.557Z,100069.23
2023-04-30T03:24:19.509Z,100065.38
2023-04-30T03:26:46.830Z,100069.08
2023-04-30T03:29:13.682Z,100076.57
2023-04-30T03:31:40.361Z,100078.37
2023-04-30T03:34:07.135Z,100081.43
2023-04-30T03:36:34.850Z,100083.09
2023-04-30T03:39:02.366Z,100087.93
2023-04-30T03:41:28.932Z,100090.61
2023-04-30T03:43:55.667Z,100091.08
2023-04-30T03:46:22.552Z,100093.15
2023-04-30T03:48:49.235Z,100097.55
2023-04-30T03:51:15.800Z,100099.05
2023-04-30T03:53:42.406Z,100102.10
2023-04-30T03:56:08.991Z,100108.06
2023-04-30T03:58:35.627Z,100111.11
2023-04-30T04:01:02.217Z,100112.33
2023-04-30T04:03:28.822Z,100118.43
2023-04-30T04:05:55.495Z,100120.52
2023-04-30T04:08:22.682Z,100127.55
2023-04-30T04:10:49.217Z,100131.20
2023-04-30T04:13:15.795Z,100128.92
2023-04-30T04:15:42.441Z,100131.30
2023-04-30T04:18:09.120Z,100129.57
2023-04-30T04:20:35.751Z,100134.61
2023-04-30T04:23:02.672Z,100132.82
2023-04-30T04:25:29.255Z,100133.90
2023-04-30T04:27:55.827Z,100139.75
2023-04-30T04:30:22.449Z,100142.90
2023-04-30T04:32:51.781Z,100140.52
2023-04-30T04:35:19.245Z,100150.23
2023-04-30T04:37:45.974Z,100154.88
2023-04-30T04:40:13.827Z,100157.30
2023-04-30T04:42:40.771Z,100159.38
2023-04-30T04:45:08.380Z,100163.58
2023-04-30T04:47:35.153Z,100164.30
2023-04-30T04:50:02.221Z,100172.95
2023-04-30T04:52:29.172Z,100179.84
2023-04-30T04:54:55.984Z,100186.08
2023-04-30T04:57:22.605Z,100189.81
2023-04-30T04:59:49.308Z,100198.36
2023-04-30T05:02:15.934Z,100204.34
2023-04-30T05:04:42.517Z,100207.62
2023-04-30T05:07:09.131Z,100208.95
2023-04-30T05:09:35.730Z,100216.64
2023-04-30T05:12:02.643Z,100223.83
2023-04-30T05:14:29.237Z,100227.36
2023-04-30T05:16:55.857Z,100229.02
2023-04-30T05:19:22.446Z,100234.43
2023-04-30T05:21:49.103Z,100242.73
2023-04-30T05:24:15.793Z,100244.48
2023-04-30T05:26:42.304Z,100246.02
2023-04-30T05:29:08.831Z,100246.83
2023-04-30T05:31:36.136Z,100252.21
2023-04-30T05:34:02.650Z,100254.70
2023-04-30T05:36:29.316Z,100256.55
2023-04-30T05:38:55.870Z,100262.33
2023-04-30T05:41:22.439Z,100263.16
2023-04-30T05:43:48.973Z,100264.80
2023-04-30T05:46:15.569Z,100273.01
2023-04-30T05:48:42.180Z,100278.83
2023-04-30T05:51:10.741Z,100285.34
2023-04-30T05:53:37.390Z,100295.43
2023-04-30T05:56:03.941Z,100292.96
2023-04-30T05:58:30.570Z,100295.71
2023-04-30T06:00:57.196Z,100296.19
2023-04-30T06:03:23.756Z,100298.39
2023-04-30T06:05:51.643Z,100301.66
2023-04-30T06:08:18.557Z,100298.16
2023-04-30T06:10:45.190Z,100305.16
2023-04-30T06:13:11.756Z,100313.14
2023-04-30T06:15:38.370Z,100315.24
2023-04-30T06:18:05.105Z,100317.38
2023-04-30T06:20:31.787Z,100317.07
2023-04-30T06:22:58.511Z,100317.79
2023-04-30T06:25:25.136Z,100317.71
2023-04-30T06:27:54.122Z,100324.77
2023-04-30T06:30:21.052Z,100325.39
2023-04-30T06:32:47.648Z,100326.39
2023-04-30T06:35:15.153Z,100330.42
2023-04-30T06:37:41.899Z,100329.60
2023-04-30T06:40:09.048Z,100334.16
2023-04-30T06:42:36.052Z,100333.89
2023-04-30T06:45:03.646Z,100335.59
2023-04-30T06:47:34.757Z,100336.75
2023-04-30T06:50:02.415Z,100337.92
2023-04-30T06:52:29.094Z,100335.29
2023-04-30T06:54:55.844Z,100334.84
2023-04-30T06:57:22.776Z,100336.39
2023-04-30T06:59:49.311Z,100332.77
2023-04-30T07:02:16.247Z,100332.06
2023-04-30T07:04:42.796Z,100332.44
2023-04-30T07:07:09.663Z,100331.66
2023-04-30T07:09:39.401Z,100335.23
2023-04-30T07:12:06.202Z,100337.63
2023-04-30T07:14:32.831Z,100341.25
2023-04-30T07:17:02.276Z,100342.86
2023-04-30T07:19:28.797Z,100349.90
2023-04-30T07:21:55.461Z,100343.98
2023-04-30T07:24:22.078Z,100347.55
2023-04-30T07:26:48.668Z,100349.27
2023-04-30T07:29:15.299Z,100351.30
2023-04-30T07:31:47.682Z,100355.89
2023-04-30T07:34:14.300Z,100353.65
2023-04-30T07:36:41.133Z,100357.34
2023-04-30T07:39:08.177Z,100360.30
2023-04-30T07:41:34.773Z,100362.09
2023-04-30T07:44:01.378Z,100366.55
2023-04-30T07:46:28.245Z,100361.63
2023-04-30T07:48:54.934Z,100360.33
2023-04-30T07:51:21.792Z,100365.05
2023-04-30T07:53:50.917Z,100371.94
2023-04-30T07:56:17.519Z,100371.41
2023-04-30T07:58:44.153Z,100376.23
2023-04-30T08:01:10.947Z,100379.53
2023-04-30T08:03:37.658Z,100383.08
2023-04-30T08:06:05.803Z,100382.33
2023-04-30T08:08:32.377Z,100376.51
2023-04-30T08:10:58.905Z,100377.08
2023-04-30T08:13:25.456Z,100384.61
2023-04-30T08:15:52.046Z,100386.57
2023-04-30T08:18:18.652Z,100385.33
2023-04-30T08:20:45.371Z,100382.55
2023-04-30T08:23:11.981Z,100384.23
2023-04-30T08:25:38.501Z,100380.33
2023-04-30T08:28:06.710Z,100373.52
2023-04-30T08:30:33.341Z,100382.63
2023-04-30T08:33:00.348Z,100385.33
2023-04-30T08:35:26.954Z,100389.60
2023-04-30T08:37:54.084Z,100387.46
2023-04-30T08:40:21.951Z,100392.41
2023-04-30T08:43:05.233Z,100396.88
2023-04-30T08:45:33.552Z,100394.93
2023-04-30T08:48:03.987Z,100406.45
2023-04-30T08:50:31.266Z,100406.50
2023-04-30T08:52:59.642Z,100406.10
2023-04-30T08:55:29.977Z,100407.61
2023-04-30T08:57:56.527Z,100411.95
2023-04-30T09:00:23.261Z,100410.19
2023-04-30T09:02:50.377Z,100415.37
2023-04-30T09:05:17.047Z,100414.72
2023-04-30T09:07:56.018Z,100412.00
2023-04-30T09:10:33.817Z,100415.71
2023-04-30T09:13:08.413Z,100409.39
2023-04-30T09:15:37.590Z,100413.86
2023-04-30T09:18:10.030Z,100412.48
2023-04-30T09:20:37.307Z,100412.89
2023-04-30T09:23:09.145Z,100408.25
2023-04-30T09:25:43.066Z,100411.64
2023-04-30T09:28:11.440Z,100409.13
2023-04-30T09:30:39.166Z,100409.36
2023-04-30T09:33:06.977Z,100413.47
2023-04-30T09:35:42.656Z,100411.73
